sensor_id;sensor_type;location;lat;lon;timestamp;pressure;altitude;pressure_sealevel;temperature;humidity
43820;BME280;67762;52.476;6.046;2023-02-28T00:03:33;103192.13;;;3.39;74.74
43820;BME280;67762;52.476;6.046;2023-02-28T00:06:07;103200.66;;;3.45;74.12
43820;BME280;67762;52.476;6.046;2023-02-28T00:08:35;103179.53;;;3.45;73.64
43820;BME280;67762;52.476;6.046;2023-02-28T00:11:03;103177.56;;;3.50;73.76
43820;BME280;67762;52.476;6.046;2023-02-28T00:13:28;103179.31;;;3.51;73.68
43820;BME280;67762;52.476;6.046;2023-02-28T00:16:05;103180.09;;;3.53;73.36
43820;BME280;67762;52.476;6.046;2023-02-28T00:18:32;103188.81;;;3.55;73.35
43820;BME280;67762;52.476;6.046;2023-02-28T00:20:58;103185.34;;;3.55;74.11
43820;BME280;67762;52.476;6.046;2023-02-28T00:23:24;103189.66;;;3.56;73.47
43820;BME280;67762;52.476;6.046;2023-02-28T00:25:51;103198.47;;;3.57;73.79
43820;BME280;67762;52.476;6.046;2023-02-28T00:28:16;103197.66;;;3.54;73.97
43820;BME280;67762;52.476;6.046;2023-02-28T00:30:42;103195.06;;;3.53;73.54
43820;BME280;67762;52.476;6.046;2023-02-28T00:33:08;103186.44;;;3.49;73.92
43820;BME280;67762;52.476;6.046;2023-02-28T00:35:33;103183.25;;;3.41;73.78
43820;BME280;67762;52.476;6.046;2023-02-28T00:37:59;103185.06;;;3.39;73.93
43820;BME280;67762;52.476;6.046;2023-02-28T00:40:27;103184.34;;;3.36;74.00
43820;BME280;67762;52.476;6.046;2023-02-28T00:42:52;103186.16;;;3.34;74.34
43820;BME280;67762;52.476;6.046;2023-02-28T00:45:18;103189.75;;;3.33;74.42
43820;BME280;67762;52.476;6.046;2023-02-28T00:47:44;103193.38;;;3.30;73.71
43820;BME280;67762;52.476;6.046;2023-02-28T00:50:12;103197.78;;;3.30;74.08
43820;BME280;67762;52.476;6.046;2023-02-28T00:52:37;103196.00;;;3.30;73.99
43820;BME280;67762;52.476;6.046;2023-02-28T00:55:04;103189.78;;;3.31;74.68
43820;BME280;67762;52.476;6.046;2023-02-28T00:57:30;103196.78;;;3.32;74.37
43820;BME280;67762;52.476;6.046;2023-02-28T00:59:55;103193.22;;;3.33;74.59
43820;BME280;67762;52.476;6.046;2023-02-28T01:02:22;103192.38;;;3.33;73.87
43820;BME280;67762;52.476;6.046;2023-02-28T01:04:48;103193.28;;;3.32;74.50
43820;BME280;67762;52.476;6.046;2023-02-28T01:07:14;103190.66;;;3.32;74.27
43820;BME280;67762;52.476;6.046;2023-02-28T01:09:41;103195.06;;;3.31;74.20
43820;BME280;67762;52.476;6.046;2023-02-28T01:12:07;103194.19;;;3.31;74.42
43820;BME280;67762;52.476;6.046;2023-02-28T01:14:33;103188.00;;;3.32;74.61
43820;BME280;67762;52.476;6.046;2023-02-28T01:17:00;103188.88;;;3.32;74.77
43820;BME280;67762;52.476;6.046;2023-02-28T01:19:26;103184.47;;;3.33;74.27
43820;BME280;67762;52.476;6.046;2023-02-28T01:21:51;103184.47;;;3.33;74.82
43820;BME280;67762;52.476;6.046;2023-02-28T01:24:17;103179.19;;;3.33;74.31
43820;BME280;67762;52.476;6.046;2023-02-28T01:26:44;103177.53;;;3.30;74.34
43820;BME280;67762;52.476;6.046;2023-02-28T01:29:09;103181.00;;;3.31;74.16
43820;BME280;67762;52.476;6.046;2023-02-28T01:31:35;103181.00;;;3.31;74.70
43820;BME280;67762;52.476;6.046;2023-02-28T01:34:01;103179.34;;;3.28;74.82
43820;BME280;67762;52.476;6.046;2023-02-28T01:36:27;103174.31;;;3.22;74.84
43820;BME280;67762;52.476;6.046;2023-02-28T01:38:55;103174.56;;;3.16;75.08
43820;BME280;67762;52.476;6.046;2023-02-28T01:41:28;103171.19;;;3.13;74.87
43820;BME280;67762;52.476;6.046;2023-02-28T01:43:57;103170.38;;;3.11;74.79
43820;BME280;67762;52.476;6.046;2023-02-28T01:46:23;103167.78;;;3.09;74.38
43820;BME280;67762;52.476;6.046;2023-02-28T01:48:56;103169.63;;;3.07;75.20
43820;BME280;67762;52.476;6.046;2023-02-28T01:51:53;103168.66;;;3.10;75.14
43820;BME280;67762;52.476;6.046;2023-02-28T01:54:27;103163.28;;;3.13;75.23
43820;BME280;67762;52.476;6.046;2023-02-28T01:56:57;103167.56;;;3.15;75.12
43820;BME280;67762;52.476;6.046;2023-02-28T01:59:52;103169.28;;;3.16;75.00
43820;BME280;67762;52.476;6.046;2023-02-28T02:02:21;103172.84;;;3.15;74.67
43820;BME280;67762;52.476;6.046;2023-02-28T02:04:55;103170.28;;;3.14;74.82
43820;BME280;67762;52.476;6.046;2023-02-28T02:07:23;103164.19;;;3.12;74.46
43820;BME280;67762;52.476;6.046;2023-02-28T02:10:01;103157.19;;;3.11;74.85
43820;BME280;67762;52.476;6.046;2023-02-28T02:15:16;103157.31;;;3.08;74.54
43820;BME280;67762;52.476;6.046;2023-02-28T02:17:45;103165.16;;;3.09;74.77
43820;BME280;67762;52.476;6.046;2023-02-28T02:25:42;103161.63;;;3.10;75.30
43820;BME280;67762;52.476;6.046;2023-02-28T02:31:11;103157.88;;;3.16;75.13
43820;BME280;67762;52.476;6.046;2023-02-28T02:36:24;103157.56;;;3.23;75.60
43820;BME280;67762;52.476;6.046;2023-02-28T02:38:56;103157.56;;;3.23;75.59
43820;BME280;67762;52.476;6.046;2023-02-28T02:41:36;103153.06;;;3.25;75.17
43820;BME280;67762;52.476;6.046;2023-02-28T02:44:12;103157.44;;;3.26;74.82
43820;BME280;67762;52.476;6.046;2023-02-28T02:46:45;103159.09;;;3.29;74.90
43820;BME280;67762;52.476;6.046;2023-02-28T02:49:26;103156.47;;;3.29;75.75
43820;BME280;67762;52.476;6.046;2023-02-28T02:51:55;103157.38;;;3.28;75.45
43820;BME280;67762;52.476;6.046;2023-02-28T02:54:27;103158.19;;;3.30;75.27
43820;BME280;67762;52.476;6.046;2023-02-28T02:56:57;103160.75;;;3.31;75.30
43820;BME280;67762;52.476;6.046;2023-02-28T02:59:25;103160.63;;;3.34;75.39
43820;BME280;67762;52.476;6.046;2023-02-28T03:02:03;103169.31;;;3.38;75.30
43820;BME280;67762;52.476;6.046;2023-02-28T03:04:33;103171.06;;;3.37;75.88
43820;BME280;67762;52.476;6.046;2023-02-28T03:07:00;103164.88;;;3.38;75.62
43820;BME280;67762;52.476;6.046;2023-02-28T03:09:26;103171.88;;;3.39;75.13
43820;BME280;67762;52.476;6.046;2023-02-28T03:11:54;103164.03;;;3.38;75.32
43820;BME280;67762;52.476;6.046;2023-02-28T03:25:08;103168.25;;;3.20;74.21
43820;BME280;67762;52.476;6.046;2023-02-28T03:30:24;103165.91;;;3.13;75.28
43820;BME280;67762;52.476;6.046;2023-02-28T03:33:10;103165.16;;;3.09;74.58
43820;BME280;67762;52.476;6.046;2023-02-28T03:35:42;103173.03;;;3.11;75.40
43820;BME280;67762;52.476;6.046;2023-02-28T03:38:18;103173.06;;;3.09;75.25
43820;BME280;67762;52.476;6.046;2023-02-28T03:40:53;103176.69;;;3.07;75.46
43820;BME280;67762;52.476;6.046;2023-02-28T03:43:27;103171.50;;;3.05;75.09
43820;BME280;67762;52.476;6.046;2023-02-28T03:45:56;103173.25;;;3.05;75.07
43820;BME280;67762;52.476;6.046;2023-02-28T03:48:31;103177.75;;;3.03;74.88
43820;BME280;67762;52.476;6.046;2023-02-28T03:51:02;103177.84;;;3.00;74.89
43820;BME280;67762;52.476;6.046;2023-02-28T03:53:36;103181.47;;;2.97;75.23
43820;BME280;67762;52.476;6.046;2023-02-28T03:56:13;103177.22;;;2.93;75.43
43820;BME280;67762;52.476;6.046;2023-02-28T04:01:33;103174.91;;;2.84;76.12
43820;BME280;67762;52.476;6.046;2023-02-28T04:04:01;103169.81;;;2.79;75.44
43820;BME280;67762;52.476;6.046;2023-02-28T04:06:30;103171.66;;;2.77;75.79
43820;BME280;67762;52.476;6.046;2023-02-28T04:08:56;103174.34;;;2.76;76.35
43820;BME280;67762;52.476;6.046;2023-02-28T04:11:33;103177.16;;;2.71;76.37
43820;BME280;67762;52.476;6.046;2023-02-28T04:14:00;103168.50;;;2.68;75.78
43820;BME280;67762;52.476;6.046;2023-02-28T04:16:26;103165.06;;;2.66;75.84
43820;BME280;67762;52.476;6.046;2023-02-28T04:18:52;103158.19;;;2.62;76.17
43820;BME280;67762;52.476;6.046;2023-02-28T04:21:17;103166.19;;;2.59;76.21
43820;BME280;67762;52.476;6.046;2023-02-28T04:23:46;103175.06;;;2.56;76.00
43820;BME280;67762;52.476;6.046;2023-02-28T04:26:11;103170.75;;;2.55;76.02
43820;BME280;67762;52.476;6.046;2023-02-28T04:28:38;103164.63;;;2.53;76.38
43820;BME280;67762;52.476;6.046;2023-02-28T04:31:04;103166.41;;;2.53;76.45
43820;BME280;67762;52.476;6.046;2023-02-28T04:33:32;103159.56;;;2.49;75.92
43820;BME280;67762;52.476;6.046;2023-02-28T04:36:03;103165.84;;;2.45;75.08
43820;BME280;67762;52.476;6.046;2023-02-28T04:38:37;103155.47;;;2.40;74.77
43820;BME280;67762;52.476;6.046;2023-02-28T04:41:03;103160.84;;;2.37;74.28
43820;BME280;67762;52.476;6.046;2023-02-28T04:43:29;103160.16;;;2.32;74.72
43820;BME280;67762;52.476;6.046;2023-02-28T04:45:56;103168.97;;;2.31;74.62
43820;BME280;67762;52.476;6.046;2023-02-28T04:48:23;103171.66;;;2.29;74.52
43820;BME280;67762;52.476;6.046;2023-02-28T04:50:49;103167.38;;;2.27;75.15
43820;BME280;67762;52.476;6.046;2023-02-28T04:53:15;103163.06;;;2.24;75.34
43820;BME280;67762;52.476;6.046;2023-02-28T04:55:41;103165.75;;;2.23;74.92
43820;BME280;67762;52.476;6.046;2023-02-28T04:58:06;103166.72;;;2.20;74.82
43820;BME280;67762;52.476;6.046;2023-02-28T05:00:32;103173.81;;;2.18;74.63
43820;BME280;67762;52.476;6.046;2023-02-28T05:02:57;103174.72;;;2.17;75.09
43820;BME280;67762;52.476;6.046;2023-02-28T05:05:23;103179.22;;;2.14;75.21
43820;BME280;67762;52.476;6.046;2023-02-28T05:07:48;103176.66;;;2.12;75.24
43820;BME280;67762;52.476;6.046;2023-02-28T05:10:14;103180.28;;;2.08;74.97
43820;BME280;67762;52.476;6.046;2023-02-28T05:12:40;103180.44;;;2.05;75.15
43820;BME280;67762;52.476;6.046;2023-02-28T05:15:06;103168.25;;;2.01;74.78
43820;BME280;67762;52.476;6.046;2023-02-28T05:17:31;103172.75;;;1.98;74.73
43820;BME280;67762;52.476;6.046;2023-02-28T05:19:57;103175.50;;;1.95;74.59
43820;BME280;67762;52.476;6.046;2023-02-28T05:22:22;103183.47;;;1.93;74.83
43820;BME280;67762;52.476;6.046;2023-02-28T05:24:48;103178.34;;;1.89;74.88
43820;BME280;67762;52.476;6.046;2023-02-28T05:27:13;103180.16;;;1.87;75.15
43820;BME280;67762;52.476;6.046;2023-02-28T05:29:39;103177.59;;;1.85;75.75
43820;BME280;67762;52.476;6.046;2023-02-28T05:32:11;103180.25;;;1.84;75.68
43820;BME280;67762;52.476;6.046;2023-02-28T05:34:38;103184.63;;;1.85;75.92
43820;BME280;67762;52.476;6.046;2023-02-28T05:37:05;103178.56;;;1.83;76.28
43820;BME280;67762;52.476;6.046;2023-02-28T05:39:31;103183.91;;;1.80;76.51
43820;BME280;67762;52.476;6.046;2023-02-28T05:41:56;103179.63;;;1.77;77.08
43820;BME280;67762;52.476;6.046;2023-02-28T05:44:22;103190.19;;;1.75;76.85
43820;BME280;67762;52.476;6.046;2023-02-28T05:46:48;103176.22;;;1.73;77.12
43820;BME280;67762;52.476;6.046;2023-02-28T05:49:13;103182.47;;;1.69;77.72
43820;BME280;67762;52.476;6.046;2023-02-28T05:51:39;103181.75;;;1.66;77.81
43820;BME280;67762;52.476;6.046;2023-02-28T05:54:05;103195.00;;;1.63;78.16
43820;BME280;67762;52.476;6.046;2023-02-28T05:56:32;103181.06;;;1.59;77.89
43820;BME280;67762;52.476;6.046;2023-02-28T05:58:59;103183.75;;;1.58;77.96
43820;BME280;67762;52.476;6.046;2023-02-28T06:01:37;103172.38;;;1.57;78.27
43820;BME280;67762;52.476;6.046;2023-02-28T06:04:04;103173.28;;;1.56;78.63
43820;BME280;67762;52.476;6.046;2023-02-28T06:06:30;103176.78;;;1.57;78.79
43820;BME280;67762;52.476;6.046;2023-02-28T06:08:56;103175.91;;;1.56;78.53
43820;BME280;67762;52.476;6.046;2023-02-28T06:11:22;103179.41;;;1.57;78.68
43820;BME280;67762;52.476;6.046;2023-02-28T06:13:57;103182.03;;;1.57;78.75
43820;BME280;67762;52.476;6.046;2023-02-28T06:16:24;103181.16;;;1.56;79.24
43820;BME280;67762;52.476;6.046;2023-02-28T06:18:49;103193.44;;;1.57;79.02
43820;BME280;67762;52.476;6.046;2023-02-28T06:21:15;103191.66;;;1.58;79.11
43820;BME280;67762;52.476;6.046;2023-02-28T06:23:41;103188.19;;;1.56;79.59
43820;BME280;67762;52.476;6.046;2023-02-28T06:26:06;103187.34;;;1.55;79.49
43820;BME280;67762;52.476;6.046;2023-02-28T06:28:32;103195.19;;;1.57;79.72
43820;BME280;67762;52.476;6.046;2023-02-28T06:30:57;103194.38;;;1.55;79.44
43820;BME280;67762;52.476;6.046;2023-02-28T06:33:23;103192.66;;;1.54;79.50
43820;BME280;67762;52.476;6.046;2023-02-28T06:35:51;103190.97;;;1.51;79.41
43820;BME280;67762;52.476;6.046;2023-02-28T06:38:18;103197.22;;;1.49;79.91
43820;BME280;67762;52.476;6.046;2023-02-28T06:40:44;103205.88;;;1.52;79.52
43820;BME280;67762;52.476;6.046;2023-02-28T06:43:10;103211.97;;;1.53;79.73
43820;BME280;67762;52.476;6.046;2023-02-28T06:45:43;103209.41;;;1.51;79.81
43820;BME280;67762;52.476;6.046;2023-02-28T06:48:09;103206.69;;;1.53;80.24
43820;BME280;67762;52.476;6.046;2023-02-28T06:50:36;103199.69;;;1.53;80.10
43820;BME280;67762;52.476;6.046;2023-02-28T06:53:02;103197.97;;;1.52;80.36
43820;BME280;67762;52.476;6.046;2023-02-28T06:55:28;103204.94;;;1.53;80.57
43820;BME280;67762;52.476;6.046;2023-02-28T06:57:53;103211.94;;;1.54;80.11
43820;BME280;67762;52.476;6.046;2023-02-28T07:00:20;103218.94;;;1.55;80.30
43820;BME280;67762;52.476;6.046;2023-02-28T07:02:46;103226.69;;;1.58;80.20
43820;BME280;67762;52.476;6.046;2023-02-28T07:05:12;103233.00;;;1.54;80.61
43820;BME280;67762;52.476;6.046;2023-02-28T07:07:38;103227.66;;;1.56;80.56
43820;BME280;67762;52.476;6.046;2023-02-28T07:10:12;103221.44;;;1.58;80.70
43820;BME280;67762;52.476;6.046;2023-02-28T07:12:40;103223.16;;;1.61;80.67
43820;BME280;67762;52.476;6.046;2023-02-28T07:15:05;103217.75;;;1.64;80.66
43820;BME280;67762;52.476;6.046;2023-02-28T07:17:31;103219.31;;;1.69;81.07
43820;BME280;67762;52.476;6.046;2023-02-28T07:19:57;103227.13;;;1.72;81.04
43820;BME280;67762;52.476;6.046;2023-02-28T07:22:22;103231.44;;;1.75;81.07
43820;BME280;67762;52.476;6.046;2023-02-28T07:24:48;103218.06;;;1.81;81.06
43820;BME280;67762;52.476;6.046;2023-02-28T07:27:14;103221.53;;;1.83;80.95
43820;BME280;67762;52.476;6.046;2023-02-28T07:29:52;103231.94;;;1.86;81.40
43820;BME280;67762;52.476;6.046;2023-02-28T07:32:19;103237.19;;;1.88;80.82
43820;BME280;67762;52.476;6.046;2023-02-28T07:34:45;103240.53;;;1.93;81.50
43820;BME280;67762;52.476;6.046;2023-02-28T07:37:11;103244.69;;;2.00;80.91
43820;BME280;67762;52.476;6.046;2023-02-28T07:39:36;103234.88;;;2.03;80.89
43820;BME280;67762;52.476;6.046;2023-02-28T07:42:05;103252.44;;;2.04;81.21
43820;BME280;67762;52.476;6.046;2023-02-28T07:44:32;103253.19;;;2.08;81.50
43820;BME280;67762;52.476;6.046;2023-02-28T07:46:58;103243.28;;;2.14;81.65
43820;BME280;67762;52.476;6.046;2023-02-28T07:49:23;103244.75;;;2.23;81.03
43820;BME280;67762;52.476;6.046;2023-02-28T07:51:49;103234.81;;;2.31;81.64
43820;BME280;67762;52.476;6.046;2023-02-28T07:54:14;103247.69;;;2.40;81.72
43820;BME280;67762;52.476;6.046;2023-02-28T07:56:40;103242.09;;;2.49;81.61
43820;BME280;67762;52.476;6.046;2023-02-28T07:59:06;103240.84;;;2.59;81.85
43820;BME280;67762;52.476;6.046;2023-02-28T08:01:34;103245.06;;;2.65;81.92
43820;BME280;67762;52.476;6.046;2023-02-28T08:04:00;103250.00;;;2.74;81.53
43820;BME280;67762;52.476;6.046;2023-02-28T08:06:29;103252.47;;;2.78;81.25
43820;BME280;67762;52.476;6.046;2023-02-28T08:08:54;103244.63;;;3.00;81.92
43820;BME280;67762;52.476;6.046;2023-02-28T08:11:21;103243.16;;;3.16;81.16
43820;BME280;67762;52.476;6.046;2023-02-28T08:13:47;103252.97;;;3.36;81.37
43820;BME280;67762;52.476;6.046;2023-02-28T08:16:13;103253.22;;;3.51;81.71
43820;BME280;67762;52.476;6.046;2023-02-28T08:18:48;103252.69;;;3.65;81.78
43820;BME280;67762;52.476;6.046;2023-02-28T08:21:14;103266.63;;;3.69;81.59
43820;BME280;67762;52.476;6.046;2023-02-28T08:23:40;103265.44;;;3.76;81.79
43820;BME280;67762;52.476;6.046;2023-02-28T08:26:06;103267.59;;;3.88;81.12
43820;BME280;67762;52.476;6.046;2023-02-28T08:28:32;103254.47;;;4.08;81.37
43820;BME280;67762;52.476;6.046;2023-02-28T08:30:58;103250.66;;;4.35;81.73
43820;BME280;67762;52.476;6.046;2023-02-28T08:33:24;103252.66;;;4.89;81.63
43820;BME280;67762;52.476;6.046;2023-02-28T08:35:57;103265.72;;;5.68;82.51
43820;BME280;67762;52.476;6.046;2023-02-28T08:38:23;103263.81;;;6.42;82.96
43820;BME280;67762;52.476;6.046;2023-02-28T08:40:49;103263.03;;;7.07;82.72
43820;BME280;67762;52.476;6.046;2023-02-28T08:43:15;103268.22;;;7.41;83.27
43820;BME280;67762;52.476;6.046;2023-02-28T08:45:40;103263.34;;;7.65;82.15
43820;BME280;67762;52.476;6.046;2023-02-28T08:48:06;103275.00;;;7.78;82.06
43820;BME280;67762;52.476;6.046;2023-02-28T08:50:32;103262.50;;;7.80;81.82
43820;BME280;67762;52.476;6.046;2023-02-28T08:52:57;103270.66;;;7.77;80.38
43820;BME280;67762;52.476;6.046;2023-02-28T08:55:24;103271.06;;;7.70;78.99
43820;BME280;67762;52.476;6.046;2023-02-28T08:57:49;103267.03;;;7.47;76.53
43820;BME280;67762;52.476;6.046;2023-02-28T09:00:16;103263.28;;;7.02;71.95
43820;BME280;67762;52.476;6.046;2023-02-28T09:02:42;103259.63;;;6.55;68.39
43820;BME280;67762;52.476;6.046;2023-02-28T09:05:09;103255.88;;;6.25;65.41
43820;BME280;67762;52.476;6.046;2023-02-28T09:07:35;103254.75;;;5.95;62.62
43820;BME280;67762;52.476;6.046;2023-02-28T09:10:01;103252.03;;;5.96;63.66
43820;BME280;67762;52.476;6.046;2023-02-28T09:12:32;103260.78;;;6.15;65.69
43820;BME280;67762;52.476;6.046;2023-02-28T09:14:58;103266.41;;;6.43;64.29
43820;BME280;67762;52.476;6.046;2023-02-28T09:17:24;103258.41;;;6.78;66.58
43820;BME280;67762;52.476;6.046;2023-02-28T09:19:49;103253.84;;;6.97;63.45
43820;BME280;67762;52.476;6.046;2023-02-28T09:22:15;103255.34;;;7.18;66.28
43820;BME280;67762;52.476;6.046;2023-02-28T09:24:41;103256.06;;;7.37;67.87
43820;BME280;67762;52.476;6.046;2023-02-28T09:27:07;103258.28;;;7.45;67.51
43820;BME280;67762;52.476;6.046;2023-02-28T09:29:34;103255.56;;;7.46;64.69
43820;BME280;67762;52.476;6.046;2023-02-28T09:32:01;103260.09;;;7.29;60.77
43820;BME280;67762;52.476;6.046;2023-02-28T09:34:28;103259.66;;;6.88;55.30
43820;BME280;67762;52.476;6.046;2023-02-28T09:36:56;103252.91;;;6.65;52.66
43820;BME280;67762;52.476;6.046;2023-02-28T09:39:22;103259.13;;;6.64;51.19
43820;BME280;67762;52.476;6.046;2023-02-28T09:41:51;103265.91;;;6.87;53.14
43820;BME280;67762;52.476;6.046;2023-02-28T09:44:41;103268.97;;;7.28;54.05
43820;BME280;67762;52.476;6.046;2023-02-28T09:47:39;103258.63;;;7.70;52.66
43820;BME280;67762;52.476;6.046;2023-02-28T09:52:53;103264.41;;;8.23;58.55
43820;BME280;67762;52.476;6.046;2023-02-28T09:55:44;103260.25;;;8.49;59.39
43820;BME280;67762;52.476;6.046;2023-02-28T10:01:07;103263.66;;;8.51;53.27
43820;BME280;67762;52.476;6.046;2023-02-28T10:03:43;103256.72;;;8.49;50.05
43820;BME280;67762;52.476;6.046;2023-02-28T10:06:20;103248.06;;;8.45;52.09
43820;BME280;67762;52.476;6.046;2023-02-28T10:09:03;103245.97;;;8.50;49.01
43820;BME280;67762;52.476;6.046;2023-02-28T10:11:32;103246.06;;;8.19;48.05
43820;BME280;67762;52.476;6.046;2023-02-28T10:14:03;103246.22;;;8.16;47.65
43820;BME280;67762;52.476;6.046;2023-02-28T10:19:23;103242.84;;;7.98;44.41
43820;BME280;67762;52.476;6.046;2023-02-28T10:21:57;103246.91;;;7.58;43.39
43820;BME280;67762;52.476;6.046;2023-02-28T10:27:00;103253.91;;;7.28;42.82
43820;BME280;67762;52.476;6.046;2023-02-28T10:29:27;103257.16;;;7.33;43.46
43820;BME280;67762;52.476;6.046;2023-02-28T10:32:02;103255.03;;;7.40;44.31
43820;BME280;67762;52.476;6.046;2023-02-28T10:34:29;103249.22;;;7.49;46.49
43820;BME280;67762;52.476;6.046;2023-02-28T10:36:55;103249.47;;;7.76;47.52
43820;BME280;67762;52.476;6.046;2023-02-28T10:39:44;103246.59;;;7.94;46.06
43820;BME280;67762;52.476;6.046;2023-02-28T10:42:29;103238.72;;;8.22;48.78
43820;BME280;67762;52.476;6.046;2023-02-28T10:45:15;103236.06;;;8.38;47.08
43820;BME280;67762;52.476;6.046;2023-02-28T10:48:06;103235.59;;;8.46;44.56
43820;BME280;67762;52.476;6.046;2023-02-28T11:03:55;103229.94;;;9.22;49.61
43820;BME280;67762;52.476;6.046;2023-02-28T11:06:26;103227.63;;;9.30;50.29
43820;BME280;67762;52.476;6.046;2023-02-28T11:08:55;103225.75;;;9.18;50.13
43820;BME280;67762;52.476;6.046;2023-02-28T11:11:24;103222.72;;;9.24;50.86
43820;BME280;67762;52.476;6.046;2023-02-28T11:13:53;103221.56;;;9.14;49.70
43820;BME280;67762;52.476;6.046;2023-02-28T11:16:20;103223.38;;;9.14;49.89
43820;BME280;67762;52.476;6.046;2023-02-28T11:18:52;103221.47;;;9.16;49.32
43820;BME280;67762;52.476;6.046;2023-02-28T11:23:52;103219.47;;;9.19;48.63
43820;BME280;67762;52.476;6.046;2023-02-28T11:26:38;103215.59;;;8.97;47.58
43820;BME280;67762;52.476;6.046;2023-02-28T11:29:25;103208.56;;;8.81;47.23
43820;BME280;67762;52.476;6.046;2023-02-28T11:34:27;103201.25;;;8.99;46.58
43820;BME280;67762;52.476;6.046;2023-02-28T11:36:55;103206.25;;;9.04;47.34
43820;BME280;67762;52.476;6.046;2023-02-28T11:39:23;103204.66;;;8.87;47.08
43820;BME280;67762;52.476;6.046;2023-02-28T11:47:37;103191.63;;;8.82;48.05
43820;BME280;67762;52.476;6.046;2023-02-28T11:50:22;103186.59;;;8.78;46.10
43820;BME280;67762;52.476;6.046;2023-02-28T11:55:25;103191.34;;;8.73;46.83
43820;BME280;67762;52.476;6.046;2023-02-28T12:12:11;103179.56;;;8.77;45.76
43820;BME280;67762;52.476;6.046;2023-02-28T12:20:37;103173.63;;;9.00;44.59
43820;BME280;67762;52.476;6.046;2023-02-28T12:28:33;103172.09;;;9.24;43.53
43820;BME280;67762;52.476;6.046;2023-02-28T12:31:05;103170.06;;;9.28;43.33
43820;BME280;67762;52.476;6.046;2023-02-28T12:33:38;103161.13;;;9.29;43.05
43820;BME280;67762;52.476;6.046;2023-02-28T12:36:10;103151.03;;;9.34;41.96
43820;BME280;67762;52.476;6.046;2023-02-28T12:38:47;103150.47;;;9.29;42.92
43820;BME280;67762;52.476;6.046;2023-02-28T12:41:17;103159.38;;;9.42;43.92
43820;BME280;67762;52.476;6.046;2023-02-28T12:43:47;103153.41;;;9.65;44.90
43820;BME280;67762;52.476;6.046;2023-02-28T12:46:35;103156.16;;;9.64;45.12
43820;BME280;67762;52.476;6.046;2023-02-28T12:49:09;103152.63;;;9.36;45.00
43820;BME280;67762;52.476;6.046;2023-02-28T12:51:37;103141.94;;;9.24;45.58
43820;BME280;67762;52.476;6.046;2023-02-28T12:56:48;103142.63;;;9.40;46.29
43820;BME280;67762;52.476;6.046;2023-02-28T13:08:10;103124.28;;;9.62;42.47
43820;BME280;67762;52.476;6.046;2023-02-28T13:10:43;103115.06;;;9.54;43.04
43820;BME280;67762;52.476;6.046;2023-02-28T13:13:18;103130.06;;;9.42;44.01
43820;BME280;67762;52.476;6.046;2023-02-28T13:16:05;103124.59;;;9.58;44.87
43820;BME280;67762;52.476;6.046;2023-02-28T13:20:59;103112.91;;;9.46;43.11
43820;BME280;67762;52.476;6.046;2023-02-28T13:23:58;103118.34;;;9.18;42.49
43820;BME280;67762;52.476;6.046;2023-02-28T13:34:28;103111.22;;;9.18;43.33
43820;BME280;67762;52.476;6.046;2023-02-28T13:47:43;103106.47;;;9.75;43.82
43820;BME280;67762;52.476;6.046;2023-02-28T14:01:35;103098.00;;;9.56;42.00
43820;BME280;67762;52.476;6.046;2023-02-28T14:07:06;103093.22;;;9.49;42.27
43820;BME280;67762;52.476;6.046;2023-02-28T14:09:40;103094.91;;;9.50;42.37
43820;BME280;67762;52.476;6.046;2023-02-28T14:18:01;103087.72;;;9.77;43.17
43820;BME280;67762;52.476;6.046;2023-02-28T14:20:31;103081.53;;;9.76;43.13
43820;BME280;67762;52.476;6.046;2023-02-28T14:23:09;103081.28;;;9.54;41.82
43820;BME280;67762;52.476;6.046;2023-02-28T14:31:45;103073.88;;;9.45;42.38
43820;BME280;67762;52.476;6.046;2023-02-28T14:34:31;103082.19;;;9.40;42.21
43820;BME280;67762;52.476;6.046;2023-02-28T14:37:02;103090.69;;;9.33;41.86
43820;BME280;67762;52.476;6.046;2023-02-28T14:39:29;103084.81;;;9.01;40.59
43820;BME280;67762;52.476;6.046;2023-02-28T14:41:56;103091.16;;;9.13;42.13
43820;BME280;67762;52.476;6.046;2023-02-28T14:44:26;103084.66;;;9.17;42.39
43820;BME280;67762;52.476;6.046;2023-02-28T14:46:57;103077.13;;;9.23;42.25
43820;BME280;67762;52.476;6.046;2023-02-28T14:51:50;103082.31;;;9.12;41.52
43820;BME280;67762;52.476;6.046;2023-02-28T14:54:26;103087.59;;;9.26;42.40
43820;BME280;67762;52.476;6.046;2023-02-28T14:56:52;103077.72;;;9.41;42.77
43820;BME280;67762;52.476;6.046;2023-02-28T14:59:44;103070.56;;;9.41;42.33
43820;BME280;67762;52.476;6.046;2023-02-28T15:04:40;103084.81;;;9.01;41.46
43820;BME280;67762;52.476;6.046;2023-02-28T15:07:13;103086.38;;;8.91;41.44
43820;BME280;67762;52.476;6.046;2023-02-28T15:09:39;103086.47;;;8.61;41.12
43820;BME280;67762;52.476;6.046;2023-02-28T15:12:05;103084.78;;;8.60;41.54
43820;BME280;67762;52.476;6.046;2023-02-28T15:14:31;103086.84;;;8.69;42.98
43820;BME280;67762;52.476;6.046;2023-02-28T15:17:07;103074.94;;;8.89;43.48
43820;BME280;67762;52.476;6.046;2023-02-28T15:19:37;103080.22;;;9.03;43.26
43820;BME280;67762;52.476;6.046;2023-02-28T15:22:12;103074.72;;;9.06;43.27
43820;BME280;67762;52.476;6.046;2023-02-28T15:24:48;103073.91;;;9.18;43.37
43820;BME280;67762;52.476;6.046;2023-02-28T15:27:22;103071.25;;;9.18;43.36
43820;BME280;67762;52.476;6.046;2023-02-28T15:29:51;103063.38;;;9.03;42.55
43820;BME280;67762;52.476;6.046;2023-02-28T15:32:33;103063.59;;;9.00;43.08
43820;BME280;67762;52.476;6.046;2023-02-28T15:35:18;103062.75;;;8.99;42.99
43820;BME280;67762;52.476;6.046;2023-02-28T15:37:53;103058.25;;;9.00;43.63
43820;BME280;67762;52.476;6.046;2023-02-28T15:40:35;103055.09;;;8.80;42.39
43820;BME280;67762;52.476;6.046;2023-02-28T15:43:06;103056.44;;;8.73;43.25
43820;BME280;67762;52.476;6.046;2023-02-28T15:45:41;103055.78;;;8.70;43.09
43820;BME280;67762;52.476;6.046;2023-02-28T15:48:21;103049.31;;;8.74;43.62
43820;BME280;67762;52.476;6.046;2023-02-28T15:50:51;103068.34;;;8.68;43.72
43820;BME280;67762;52.476;6.046;2023-02-28T15:53:22;103069.41;;;8.51;43.46